Time,TemperatureF,DewpointF,PressureIn,WindDirection,WindDirectionDegrees,WindSpeedMPH,WindSpeedGustMPH,Humidity,HourlyPrecipIn,Conditions,Clouds,dailyrainin,SoftwareType,DateUTC
2013-01-06 00:00:00,33.7,30.8,30.02,WSW,243,7.0,14.0,89,0.00,CLR,SKC,0.00,WeatherDisplay:10.37,2013-01-06 05:00:00,
2013-01-06 00:10:00,33.5,30.6,30.01,WSW,246,8.0,13.0,89,0.00,CLR,SKC,0.00,WeatherDisplay:10.37,2013-01-06 05:10:00,
2013-01-06 00:20:00,33.2,30.3,30.01,WSW,244,7.0,17.0,89,0.00,CLR,SKC,0.00,WeatherDisplay:10.37,2013-01-06 05:20:00,
2013-01-06 00:30:00,33.6,30.7,30.01,WSW,246,6.0,16.0,89,0.00,CLR,SKC,0.00,WeatherDisplay:10.37,2013-01-06 05:30:00,
2013-01-06 00:40:00,34.5,31.9,30.00,WSW,245,7.0,15.0,90,0.00,CLR,SKC,0.00,WeatherDisplay:10.37,2013-01-06 05:40:00,
2013-01-06 00:50:00,33.6,31.0,30.00,WSW,245,8.0,15.0,90,0.00,CLR,SKC,0.00,WeatherDisplay:10.37,2013-01-06 05:50:00,
2013-01-06 01:00:00,34.0,31.4,29.99,WSW,243,3.0,15.0,90,0.00,CLR,SKC,0.00,WeatherDisplay:10.37,2013-01-06 06:00:00,
2013-01-06 01:10:00,34.3,31.9,29.99,WSW,240,3.0,15.0,91,0.00,CLR,SKC,0.00,WeatherDisplay:10.37,2013-01-06 06:10:00,
2013-01-06 01:20:00,33.9,31.3,29.98,SW,236,7.0,17.0,90,0.00,CLR,SKC,0.00,WeatherDisplay:10.37,2013-01-06 06:20:00,
2013-01-06 01:30:00,33.8,30.9,29.98,WSW,241,6.0,12.0,89,0.00,CLR,SKC,0.00,WeatherDisplay:10.37,2013-01-06 06:30:00,
2013-01-06 01:40:00,33.8,30.9,29.97,WSW,237,6.0,15.0,89,0.00,CLR,SKC,0.00,WeatherDisplay:10.37,2013-01-06 06:40:00,
2013-01-06 01:50:00,33.9,30.7,29.97,WSW,239,7.0,17.0,88,0.00,CLR,SKC,0.00,WeatherDisplay:10.37,2013-01-06 06:50:00,
2013-01-06 02:00:00,34.1,30.6,29.96,WSW,241,7.0,17.0,87,0.00,CLR,SKC,0.00,WeatherDisplay:10.37,2013-01-06 07:00:00,
2013-01-06 02:10:00,33.9,30.1,29.96,WSW,240,9.0,14.0,86,0.00,CLR,SKC,0.00,WeatherDisplay:10.37,2013-01-06 07:10:00,
2013-01-06 02:20:00,34.3,30.6,29.96,SW,235,8.0,14.0,86,0.00,CLR,SKC,0.00,WeatherDisplay:10.37,2013-01-06 07:20:00,
2013-01-06 02:30:00,34.3,30.5,29.95,WSW,237,7.0,12.0,86,0.00,CLR,SKC,0.00,WeatherDisplay:10.37,2013-01-06 07:30:00,
2013-01-06 02:40:00,34.4,30.3,29.95,WSW,237,8.0,12.0,85,0.00,CLR,SKC,0.00,WeatherDisplay:10.37,2013-01-06 07:40:00,
2013-01-06 02:50:00,34.7,31.0,29.95,WSW,241,5.0,16.0,86,0.00,CLR,SKC,0.00,WeatherDisplay:10.37,2013-01-06 07:50:00,
2013-01-06 03:00:00,34.8,30.7,29.96,WSW,239,8.0,15.0,85,0.00,CLR,SKC,0.00,WeatherDisplay:10.37,2013-01-06 08:00:00,
2013-01-06 03:10:00,34.7,30.7,29.96,WSW,241,8.0,14.0,85,0.00,CLR,SKC,0.00,WeatherDisplay:10.37,2013-01-06 08:10:00,
2013-01-06 03:20:00,35.0,31.3,29.96,WSW,243,7.0,14.0,86,0.00,CLR,SKC,0.00,WeatherDisplay:10.37,2013-01-06 08:20:00,
2013-01-06 03:30:00,34.6,30.9,29.95,WSW,248,8.0,16.0,86,0.00,CLR,SKC,0.00,WeatherDisplay:10.37,2013-01-06 08:30:00,
2013-01-06 03:40:00,35.0,31.2,29.95,WSW,253,7.0,15.0,86,0.00,CLR,SKC,0.00,WeatherDisplay:10.37,2013-01-06 08:40:00,
2013-01-06 03:49:00,35.1,31.6,29.95,WSW,246,6.0,14.0,87,0.00,CLR,SKC,0.00,WeatherDisplay:10.37,2013-01-06 08:49:00,
2013-01-06 03:59:00,35.0,31.5,29.94,WSW,253,8.0,18.0,87,0.00,CLR,SKC,0.00,WeatherDisplay:10.37,2013-01-06 08:59:00,
2013-01-06 04:09:00,35.3,31.8,29.94,WSW,248,8.0,17.0,87,0.00,CLR,SKC,0.00,WeatherDisplay:10.37,2013-01-06 09:09:00,
2013-01-06 04:19:00,35.1,31.6,29.93,WSW,244,7.0,16.0,87,0.00,CLR,SKC,0.00,WeatherDisplay:10.37,2013-01-06 09:19:00,
2013-01-06 04:29:00,35.2,32.0,29.93,WSW,247,7.0,14.0,88,0.00,CLR,SKC,0.00,WeatherDisplay:10.37,2013-01-06 09:29:00,
2013-01-06 04:39:00,35.7,32.5,29.92,WSW,247,6.0,16.0,88,0.00,CLR,SKC,0.00,WeatherDisplay:10.37,2013-01-06 09:39:00,
2013-01-06 04:49:00,35.0,31.8,29.92,WSW,244,7.0,14.0,88,0.00,CLR,SKC,0.00,WeatherDisplay:10.37,2013-01-06 09:49:00,
2013-01-06 04:59:00,35.1,31.9,29.91,WSW,250,6.0,13.0,88,0.00,CLR,SKC,0.00,WeatherDisplay:10.37,2013-01-06 09:59:00,
2013-01-06 05:09:00,35.0,31.8,29.91,WSW,248,5.0,15.0,88,0.00,CLR,SKC,0.00,WeatherDisplay:10.37,2013-01-06 10:09:00,
2013-01-06 05:19:00,35.3,32.1,29.91,WSW,251,7.0,15.0,88,0.00,CLR,SKC,0.00,WeatherDisplay:10.37,2013-01-06 10:19:00,
2013-01-06 05:29:00,34.7,31.5,29.91,WSW,241,3.0,13.0,88,0.00,CLR,SKC,0.00,WeatherDisplay:10.37,2013-01-06 10:29:00,
2013-01-06 05:39:00,35.4,31.9,29.91,WSW,240,9.0,12.0,87,0.00,CLR,SKC,0.00,WeatherDisplay:10.37,2013-01-06 10:39:00,
2013-01-06 05:49:00,35.5,32.3,29.91,WSW,246,6.0,12.0,88,0.00,CLR,SKC,0.00,WeatherDisplay:10.37,2013-01-06 10:49:00,
2013-01-06 05:59:00,34.8,31.3,29.91,WSW,242,8.0,12.0,87,0.00,CLR,SKC,0.00,WeatherDisplay:10.37,2013-01-06 10:59:00,
2013-01-06 06:09:00,35.7,32.5,29.91,WSW,252,6.0,13.0,88,0.00,CLR,SKC,0.00,WeatherDisplay:10.37,2013-01-06 11:09:00,
2013-01-06 06:19:00,35.1,31.9,29.90,WSW,238,7.0,13.0,88,0.00,CLR,SKC,0.00,WeatherDisplay:10.37,2013-01-06 11:19:00,
2013-01-06 06:29:00,35.4,32.2,29.90,WSW,242,8.0,15.0,88,0.00,CLR,SKC,0.00,WeatherDisplay:10.37,2013-01-06 11:29:00,
2013-01-06 06:40:00,35.4,32.2,29.90,WSW,242,10.0,14.0,88,0.00,CLR,SKC,0.00,WeatherDisplay:10.37,2013-01-06 11:40:00,
2013-01-06 06:50:00,34.8,31.6,29.90,WSW,247,6.0,16.0,88,0.00,CLR,SKC,0.00,WeatherDisplay:10.37,2013-01-06 11:50:00,
2013-01-06 07:00:00,35.0,32.1,29.90,WSW,247,5.0,14.0,89,0.00,CLR,SKC,0.00,WeatherDisplay:10.37,2013-01-06 12:00:00,
2013-01-06 07:10:00,35.4,32.5,29.90,WSW,248,7.0,15.0,89,0.00,CLR,SKC,0.00,WeatherDisplay:10.37,2013-01-06 12:10:00,
2013-01-06 07:20:00,34.6,31.7,29.90,WSW,250,6.0,14.0,89,0.00,CLR,SKC,0.00,WeatherDisplay:10.37,2013-01-06 12:20:00,
2013-01-06 07:30:00,35.2,32.3,29.90,WSW,245,8.0,13.0,89,0.00,CLR,SKC,0.00,WeatherDisplay:10.37,2013-01-06 12:30:00,
2013-01-06 07:40:00,34.8,31.9,29.90,WSW,244,8.0,15.0,89,0.00,CLR,SKC,0.00,WeatherDisplay:10.37,2013-01-06 12:40:00,
2013-01-06 07:50:00,35.4,32.5,29.90,WSW,251,6.0,17.0,89,0.00,CLR,SKC,0.00,WeatherDisplay:10.37,2013-01-06 12:50:00,
2013-01-06 08:00:00,35.5,32.6,29.90,WSW,248,6.0,12.0,89,0.00,CLR,SKC,0.00,WeatherDisplay:10.37,2013-01-06 13:00:00,
2013-01-06 08:10:00,34.8,31.9,29.90,WSW,246,8.0,17.0,89,0.00,CLR,SKC,0.00,WeatherDisplay:10.37,2013-01-06 13:10:00,
2013-01-06 08:20:00,35.1,32.5,29.90,WSW,246,8.0,13.0,90,0.00,CLR,SKC,0.00,WeatherDisplay:10.37,2013-01-06 13:20:00,
2013-01-06 08:30:00,35.0,32.1,29.90,WSW,246,9.0,15.0,89,0.00,CLR,SKC,0.00,WeatherDisplay:10.37,2013-01-06 13:30:00,
2013-01-06 08:40:00,35.3,32.6,29.90,WSW,243,8.0,15.0,90,0.00,CLR,SKC,0.00,WeatherDisplay:10.37,2013-01-06 13:40:00,
2013-01-06 08:50:00,35.9,33.2,29.91,WSW,249,5.0,12.0,90,0.00,CLR,SKC,0.00,WeatherDisplay:10.37,2013-01-06 13:50:00,
2013-01-06 09:00:00,35.4,32.8,29.91,WSW,250,9.0,14.0,90,0.00,CLR,SKC,0.00,WeatherDisplay:10.37,2013-01-06 14:00:00,
2013-01-06 09:10:00,35.6,32.9,29.91,WSW,254,9.0,17.0,90,0.00,CLR,SKC,0.00,WeatherDisplay:10.37,2013-01-06 14:10:00,
2013-01-06 09:20:00,35.6,33.0,29.91,WSW,249,6.0,17.0,90,0.00,CLR,SKC,0.00,WeatherDisplay:10.37,2013-01-06 14:20:00,
2013-01-06 09:30:00,35.6,32.7,29.91,WSW,257,9.0,18.0,89,0.00,CLR,SKC,0.00,WeatherDisplay:10.37,2013-01-06 14:30:00,
2013-01-06 09:40:00,36.0,33.1,29.91,WSW,258,9.0,17.0,89,0.00,CLR,SKC,0.00,WeatherDisplay:10.37,2013-01-06 14:40:00,
2013-01-06 09:50:00,36.0,33.1,29.91,West,261,9.0,15.0,89,0.00,CLR,SKC,0.00,WeatherDisplay:10.37,2013-01-06 14:50:00,
2013-01-06 10:00:00,36.5,33.9,29.91,WSW,256,9.0,18.0,90,0.00,CLR,SKC,0.00,WeatherDisplay:10.37,2013-01-06 15:00:00,
2013-01-06 10:10:00,36.5,33.9,29.92,WSW,251,3.0,14.0,90,0.00,CLR,SKC,0.00,WeatherDisplay:10.37,2013-01-06 15:10:00,
2013-01-06 10:20:00,36.7,34.1,29.92,WSW,255,10.0,17.0,90,0.00,CLR,SKC,0.00,WeatherDisplay:10.37,2013-01-06 15:20:00,
2013-01-06 10:30:00,35.8,33.2,29.92,WSW,256,6.0,17.0,90,0.00,CLR,SKC,0.00,WeatherDisplay:10.37,2013-01-06 15:30:00,
2013-01-06 10:40:00,36.7,34.0,29.92,WSW,258,8.0,16.0,90,0.00,CLR,SKC,0.00,WeatherDisplay:10.37,2013-01-06 15:40:00,
2013-01-06 10:50:00,35.9,33.3,29.92,WSW,255,6.0,15.0,90,0.00,CLR,SKC,0.00,WeatherDisplay:10.37,2013-01-06 15:50:00,
2013-01-06 11:00:00,36.1,33.4,29.92,WSW,256,8.0,17.0,90,0.00,CLR,SKC,0.00,WeatherDisplay:10.37,2013-01-06 16:00:00,
2013-01-06 11:10:00,36.1,33.7,29.92,WSW,252,7.0,17.0,91,0.00,CLR,SKC,0.00,WeatherDisplay:10.37,2013-01-06 16:10:00,
2013-01-06 11:20:00,36.5,34.1,29.92,West,259,6.0,18.0,91,0.00,CLR,SKC,0.00,WeatherDisplay:10.37,2013-01-06 16:20:00,
2013-01-06 11:30:00,35.9,33.6,29.91,WSW,256,7.0,14.0,91,0.00,CLR,SKC,0.00,WeatherDisplay:10.37,2013-01-06 16:30:00,
2013-01-06 11:40:00,36.1,33.7,29.91,West,261,5.0,12.0,91,0.00,CLR,SKC,0.00,WeatherDisplay:10.37,2013-01-06 16:40:00,
2013-01-06 11:50:00,36.1,34.0,29.91,West,266,6.0,10.0,92,0.00,CLR,SKC,0.00,WeatherDisplay:10.37,2013-01-06 16:50:00,
2013-01-06 12:00:00,36.1,34.0,29.91,WSW,257,6.0,13.0,92,0.00,CLR,SKC,0.00,WeatherDisplay:10.37,2013-01-06 17:00:00,
2013-01-06 12:10:00,35.6,33.8,29.91,West,270,7.0,13.0,93,0.00,CLR,SKC,0.00,WeatherDisplay:10.37,2013-01-06 17:10:00,
2013-01-06 12:20:00,35.5,34.2,29.91,West,270,7.0,15.0,95,0.00,CLR,SKC,0.00,WeatherDisplay:10.37,2013-01-06 17:20:00,
2013-01-06 12:30:00,35.8,34.5,29.90,West,272,7.0,13.0,95,0.00,CLR,SKC,0.00,WeatherDisplay:10.37,2013-01-06 17:30:00,
2013-01-06 12:40:00,35.1,33.6,29.90,West,278,6.0,12.0,94,0.00,CLR,SKC,0.00,WeatherDisplay:10.37,2013-01-06 17:40:00,
2013-01-06 12:50:00,35.1,33.6,29.90,West,278,7.0,17.0,94,0.00,CLR,SKC,0.00,WeatherDisplay:10.37,2013-01-06 17:50:00,
2013-01-06 13:00:00,35.4,33.8,29.90,West,276,6.0,12.0,94,0.00,CLR,SKC,0.00,WeatherDisplay:10.37,2013-01-06 18:00:00,
2013-01-06 13:10:00,35.5,34.0,29.90,West,275,9.0,13.0,94,0.00,CLR,SKC,0.00,WeatherDisplay:10.37,2013-01-06 18:10:00,
2013-01-06 13:20:00,35.1,33.8,29.90,West,278,5.0,12.0,95,0.00,CLR,SKC,0.00,WeatherDisplay:10.37,2013-01-06 18:20:00,
2013-01-06 13:30:00,34.7,33.4,29.91,WNW,286,10.0,20.0,95,0.00,CLR,SKC,0.00,WeatherDisplay:10.37,2013-01-06 18:30:00,
2013-01-06 13:40:00,33.6,32.6,29.91,WNW,303,7.0,19.0,96,0.00,CLR,SKC,0.00,WeatherDisplay:10.37,2013-01-06 18:40:00,
2013-01-06 13:50:00,33.5,33.0,29.91,WNW,300,6.0,14.0,98,0.00,CLR,SKC,0.00,WeatherDisplay:10.37,2013-01-06 18:50:00,
2013-01-06 14:00:00,33.5,32.7,29.92,West,281,3.0,14.0,97,0.00,CLR,SKC,0.00,WeatherDisplay:10.37,2013-01-06 19:00:00,
2013-01-06 14:10:00,32.3,31.3,29.92,WNW,288,8.0,15.0,96,0.00,CLR,SKC,0.00,WeatherDisplay:10.37,2013-01-06 19:10:00,
2013-01-06 14:20:00,32.4,31.4,29.93,WNW,287,7.0,16.0,96,0.00,CLR,SKC,0.00,WeatherDisplay:10.37,2013-01-06 19:20:00,
2013-01-06 14:30:00,32.2,31.0,29.93,WNW,284,6.0,14.0,95,0.00,CLR,SKC,0.00,WeatherDisplay:10.37,2013-01-06 19:30:00,
2013-01-06 14:40:00,32.0,30.7,29.94,WNW,287,6.0,13.0,95,0.00,CLR,SKC,0.00,WeatherDisplay:10.37,2013-01-06 19:40:00,
2013-01-06 14:50:00,31.8,30.2,29.95,NW,310,10.0,18.0,94,0.00,CLR,SKC,0.00,WeatherDisplay:10.37,2013-01-06 19:50:00,
2013-01-06 15:10:00,30.1,28.3,29.97,NW,310,10.0,22.0,93,0.00,CLR,SKC,0.00,WeatherDisplay:10.37,2013-01-06 20:10:00,
2013-01-06 15:20:00,28.9,27.1,29.98,NW,313,10.0,22.0,93,0.00,CLR,SKC,0.00,WeatherDisplay:10.37,2013-01-06 20:20:00,
2013-01-06 15:30:00,29.9,27.9,29.99,NW,310,8.0,20.0,92,0.00,CLR,SKC,0.00,WeatherDisplay:10.37,2013-01-06 20:30:00,
2013-01-06 15:39:00,29.5,27.7,29.99,WNW,297,7.0,17.0,93,0.00,CLR,SKC,0.00,WeatherDisplay:10.37,2013-01-06 20:39:00,
2013-01-06 15:49:00,29.4,27.4,30.00,WNW,293,7.0,17.0,92,0.00,CLR,SKC,0.00,WeatherDisplay:10.37,2013-01-06 20:49:00,
2013-01-06 16:00:00,29.2,27.1,30.01,WNW,296,8.0,18.0,92,0.00,CLR,SKC,0.00,WeatherDisplay:10.37,2013-01-06 21:00:00,
2013-01-06 16:09:00,28.9,26.9,30.02,WNW,293,8.0,17.0,92,0.00,CLR,SKC,0.00,WeatherDisplay:10.37,2013-01-06 21:09:00,
2013-01-06 16:19:00,29.1,27.4,30.02,NW,306,1.0,16.0,93,0.00,CLR,SKC,0.00,WeatherDisplay:10.37,2013-01-06 21:19:00,
2013-01-06 16:29:00,28.6,27.1,30.03,WNW,291,8.0,16.0,94,0.00,CLR,SKC,0.00,WeatherDisplay:10.37,2013-01-06 21:29:00,
2013-01-06 16:39:00,28.0,26.5,30.03,WNW,286,8.0,16.0,94,0.00,CLR,SKC,0.00,WeatherDisplay:10.37,2013-01-06 21:39:00,
2013-01-06 16:49:00,28.0,26.5,30.04,WNW,290,10.0,14.0,94,0.00,CLR,SKC,0.00,WeatherDisplay:10.37,2013-01-06 21:49:00,
2013-01-06 16:59:00,27.9,26.7,30.04,WNW,289,9.0,18.0,95,0.00,CLR,SKC,0.00,WeatherDisplay:10.37,2013-01-06 21:59:00,
2013-01-06 17:09:00,28.0,26.7,30.05,WNW,302,3.0,14.0,95,0.00,CLR,SKC,0.00,WeatherDisplay:10.37,2013-01-06 22:09:00,
2013-01-06 17:19:00,27.5,26.2,30.05,WNW,291,7.0,16.0,95,0.00,CLR,SKC,0.00,WeatherDisplay:10.37,2013-01-06 22:19:00,
2013-01-06 17:29:00,26.9,25.6,30.06,WNW,290,8.0,16.0,95,0.00,CLR,SKC,0.00,WeatherDisplay:10.37,2013-01-06 22:29:00,
2013-01-06 17:39:00,27.2,26.0,30.06,WNW,289,6.0,15.0,95,0.00,CLR,SKC,0.00,WeatherDisplay:10.37,2013-01-06 22:39:00,
2013-01-06 17:49:00,26.7,25.7,30.07,WNW,289,3.0,16.0,96,0.00,CLR,SKC,0.00,WeatherDisplay:10.37,2013-01-06 22:49:00,
2013-01-06 17:59:00,26.0,24.8,30.08,WNW,295,8.0,16.0,95,0.00,CLR,SKC,0.00,WeatherDisplay:10.37,2013-01-06 22:59:00,
2013-01-06 18:09:00,26.7,25.7,30.08,NW,305,3.0,17.0,96,0.00,CLR,SKC,0.00,WeatherDisplay:10.37,2013-01-06 23:09:00,
2013-01-06 18:19:00,26.9,26.0,30.09,WNW,291,5.0,15.0,96,0.00,CLR,SKC,0.00,WeatherDisplay:10.37,2013-01-06 23:19:00,
2013-01-06 18:29:00,26.9,25.9,30.09,WNW,292,0.0,10.0,96,0.00,CLR,SKC,0.00,WeatherDisplay:10.37,2013-01-06 23:29:00,
2013-01-06 18:40:00,26.3,25.3,30.10,WNW,282,2.0,12.0,96,0.00,CLR,SKC,0.00,WeatherDisplay:10.37,2013-01-06 23:40:00,
2013-01-06 18:50:00,26.2,25.2,30.11,WNW,295,7.0,12.0,96,0.00,CLR,SKC,0.00,WeatherDisplay:10.37,2013-01-06 23:50:00,
2013-01-06 19:00:00,26.3,25.1,30.11,WNW,297,7.0,16.0,95,0.00,CLR,SKC,0.00,WeatherDisplay:10.37,2013-01-07 00:00:00,
2013-01-06 19:10:00,26.3,25.3,30.12,WNW,295,2.0,15.0,96,0.00,CLR,SKC,0.00,WeatherDisplay:10.37,2013-01-07 00:10:00,
2013-01-06 19:20:00,26.8,25.5,30.13,WNW,301,6.0,16.0,95,0.00,CLR,SKC,0.00,WeatherDisplay:10.37,2013-01-07 00:20:00,
2013-01-06 19:30:00,26.9,26.0,30.13,WNW,288,6.0,11.0,96,0.00,CLR,SKC,0.00,WeatherDisplay:10.37,2013-01-07 00:30:00,
2013-01-06 19:40:00,26.8,25.8,30.13,WNW,287,5.0,13.0,96,0.00,CLR,SKC,0.00,WeatherDisplay:10.37,2013-01-07 00:40:00,
2013-01-06 19:50:00,26.4,25.4,30.13,WNW,286,7.0,12.0,96,0.00,CLR,SKC,0.00,WeatherDisplay:10.37,2013-01-07 00:50:00,
2013-01-06 20:00:00,26.8,25.9,30.14,WNW,290,3.0,14.0,96,0.00,CLR,SKC,0.00,WeatherDisplay:10.37,2013-01-07 01:00:00,
2013-01-06 20:10:00,27.1,26.1,30.14,WNW,296,6.0,13.0,96,0.00,CLR,SKC,0.00,WeatherDisplay:10.37,2013-01-07 01:10:00,
2013-01-06 20:20:00,26.9,25.9,30.15,WNW,292,8.0,15.0,96,0.00,CLR,SKC,0.00,WeatherDisplay:10.37,2013-01-07 01:20:00,
2013-01-06 20:30:00,26.7,25.4,30.15,WNW,295,8.0,15.0,95,0.00,CLR,SKC,0.00,WeatherDisplay:10.37,2013-01-07 01:30:00,
2013-01-06 20:40:00,27.0,25.8,30.16,WNW,297,7.0,17.0,95,0.00,CLR,SKC,0.00,WeatherDisplay:10.37,2013-01-07 01:40:00,
2013-01-06 20:50:00,27.5,26.5,30.16,WNW,288,5.0,13.0,96,0.00,CLR,SKC,0.00,WeatherDisplay:10.37,2013-01-07 01:50:00,
2013-01-06 21:00:00,27.3,26.3,30.16,WNW,288,9.0,14.0,96,0.00,CLR,SKC,0.00,WeatherDisplay:10.37,2013-01-07 02:00:00,
2013-01-06 21:10:00,27.7,26.5,30.17,WNW,297,5.0,14.0,95,0.00,CLR,SKC,0.00,WeatherDisplay:10.37,2013-01-07 02:10:00,
2013-01-06 21:20:00,27.7,26.0,30.17,WNW,294,5.0,13.0,93,0.00,CLR,SKC,0.00,WeatherDisplay:10.37,2013-01-07 02:20:00,
2013-01-06 21:30:00,28.0,26.4,30.17,WNW,289,3.0,9.0,94,0.00,CLR,SKC,0.00,WeatherDisplay:10.37,2013-01-07 02:30:00,
2013-01-06 21:40:00,27.8,26.3,30.18,WNW,291,8.0,14.0,94,0.00,CLR,SKC,0.00,WeatherDisplay:10.37,2013-01-07 02:40:00,
2013-01-06 21:50:00,28.2,26.5,30.18,WNW,293,5.0,13.0,93,0.00,CLR,SKC,0.00,WeatherDisplay:10.37,2013-01-07 02:50:00,
2013-01-06 22:00:00,28.2,27.0,30.18,WNW,295,6.0,14.0,95,0.00,CLR,SKC,0.00,WeatherDisplay:10.37,2013-01-07 03:00:00,
2013-01-06 22:10:00,28.5,27.3,30.18,WNW,289,5.0,10.0,95,0.00,CLR,SKC,0.00,WeatherDisplay:10.37,2013-01-07 03:10:00,
2013-01-06 22:20:00,28.6,27.4,30.19,WNW,298,5.0,10.0,95,0.00,CLR,SKC,0.00,WeatherDisplay:10.37,2013-01-07 03:20:00,
2013-01-06 22:30:00,28.6,27.4,30.19,WNW,294,5.0,10.0,95,0.00,CLR,SKC,0.00,WeatherDisplay:10.37,2013-01-07 03:30:00,
2013-01-06 22:40:00,28.8,27.5,30.19,West,274,2.0,9.0,95,0.00,CLR,SKC,0.00,WeatherDisplay:10.37,2013-01-07 03:40:00,
2013-01-06 22:50:00,29.6,28.3,30.20,WNW,296,3.0,7.0,95,0.00,CLR,SKC,0.00,WeatherDisplay:10.37,2013-01-07 03:50:00,
2013-01-06 23:00:00,28.7,27.5,30.21,WNW,283,2.0,10.0,95,0.00,CLR,SKC,0.00,WeatherDisplay:10.37,2013-01-07 04:00:00,
2013-01-06 23:10:00,29.0,27.8,30.22,WNW,294,6.0,10.0,95,0.00,CLR,SKC,0.00,WeatherDisplay:10.37,2013-01-07 04:10:00,
2013-01-06 23:20:00,29.0,27.7,30.22,WNW,303,7.0,10.0,95,0.00,CLR,SKC,0.00,WeatherDisplay:10.37,2013-01-07 04:20:00,
2013-01-06 23:30:00,29.5,28.2,30.22,NW,307,1.0,13.0,95,0.00,CLR,SKC,0.00,WeatherDisplay:10.37,2013-01-07 04:30:00,
2013-01-06 23:40:00,29.5,28.3,30.22,WNW,283,1.0,7.0,95,0.00,CLR,SKC,0.00,WeatherDisplay:10.37,2013-01-07 04:40:00,
2013-01-06 23:50:00,29.1,28.1,30.22,NNW,330,0.0,6.0,96,0.00,CLR,SKC,0.00,WeatherDisplay:10.37,2013-01-07 04:50:00,